createdAt,value
2018-12-26T00:00:32.796Z,1027.42
2018-12-26T00:01:32.819Z,1027.37
2018-12-26T00:02:32.810Z,1027.36
2018-12-26T00:03:32.817Z,1027.34
2018-12-26T00:04:32.858Z,1027.34
2018-12-26T00:05:32.848Z,1027.33
2018-12-26T00:06:32.854Z,1027.32
2018-12-26T00:07:32.857Z,1027.34
2018-12-26T00:08:32.871Z,1027.30
2018-12-26T00:09:32.920Z,1027.28
2018-12-26T00:10:32.886Z,1027.28
2018-12-26T00:11:32.894Z,1027.33
2018-12-26T00:12:32.993Z,1027.28
2018-12-26T00:13:32.910Z,1027.30
2018-12-26T00:14:32.919Z,1027.32
2018-12-26T00:15:32.934Z,1027.28
2018-12-26T00:16:32.939Z,1027.33
2018-12-26T00:17:32.962Z,1027.32
2018-12-26T00:18:32.989Z,1027.30
2018-12-26T00:19:33.030Z,1027.37
2018-12-26T00:20:32.979Z,1027.33
2018-12-26T00:21:32.989Z,1027.34
2018-12-26T00:22:32.996Z,1027.31
2018-12-26T00:23:33.009Z,1027.31
2018-12-26T00:24:33.016Z,1027.26
2018-12-26T00:25:33.026Z,1027.31
2018-12-26T00:26:33.052Z,1027.29
2018-12-26T00:27:33.054Z,1027.30
2018-12-26T00:28:33.060Z,1027.32
2018-12-26T00:29:33.071Z,1027.24
2018-12-26T00:30:33.077Z,1027.32
2018-12-26T00:31:33.081Z,1027.30
2018-12-26T00:32:33.105Z,1027.28
2018-12-26T00:33:33.114Z,1027.29
2018-12-26T00:34:33.113Z,1027.33
2018-12-26T00:35:33.123Z,1027.31
2018-12-26T00:36:33.135Z,1027.33
2018-12-26T00:37:33.138Z,1027.29
2018-12-26T00:38:33.150Z,1027.32
2018-12-26T00:39:33.162Z,1027.30
2018-12-26T00:40:33.167Z,1027.28
2018-12-26T00:41:33.187Z,1027.29
2018-12-26T00:42:33.240Z,1027.26
2018-12-26T00:43:33.200Z,1027.29
2018-12-26T00:44:33.215Z,1027.25
2018-12-26T00:45:33.217Z,1027.24
2018-12-26T00:46:33.224Z,1027.23
2018-12-26T00:47:33.238Z,1027.33
2018-12-26T00:48:33.245Z,1027.26
2018-12-26T00:49:33.257Z,1027.27
2018-12-26T00:50:33.268Z,1027.25
2018-12-26T00:51:33.273Z,1027.24
2018-12-26T00:52:33.286Z,1027.27
2018-12-26T00:53:33.295Z,1027.24
2018-12-26T00:54:33.307Z,1027.22
2018-12-26T00:55:33.311Z,1027.17
2018-12-26T00:56:33.322Z,1027.15
2018-12-26T00:57:33.342Z,1027.11
2018-12-26T00:58:33.342Z,1027.11
2018-12-26T00:59:33.353Z,1027.11
2018-12-26T01:00:33.364Z,1027.06
2018-12-26T01:01:33.372Z,1027.09
2018-12-26T01:02:33.382Z,1027.09
2018-12-26T01:03:33.393Z,1027.10
2018-12-26T01:04:33.406Z,1027.07
2018-12-26T01:05:33.430Z,1027.10
2018-12-26T01:06:33.420Z,1027.08
2018-12-26T01:07:33.430Z,1027.14
2018-12-26T01:08:33.435Z,1027.14
2018-12-26T01:09:33.447Z,1027.11
2018-12-26T01:10:33.455Z,1027.16
2018-12-26T01:11:33.467Z,1027.13
2018-12-26T01:12:33.485Z,1027.12
2018-12-26T01:13:33.487Z,1027.11
2018-12-26T01:14:33.496Z,1027.13
2018-12-26T01:15:33.506Z,1027.12
2018-12-26T01:16:33.524Z,1027.13
2018-12-26T01:17:33.534Z,1027.13
2018-12-26T01:18:33.540Z,1027.13
2018-12-26T01:19:33.544Z,1027.12
2018-12-26T01:20:33.553Z,1027.10
2018-12-26T01:21:33.562Z,1027.13
2018-12-26T01:22:33.571Z,1027.10
2018-12-26T01:23:33.589Z,1027.10
2018-12-26T01:24:33.607Z,1027.09
2018-12-26T01:25:33.600Z,1027.13
2018-12-26T01:26:33.624Z,1027.15
2018-12-26T01:27:33.623Z,1027.17
2018-12-26T01:28:33.640Z,1027.14
2018-12-26T01:29:33.644Z,1027.14
2018-12-26T01:30:33.653Z,1027.18
2018-12-26T01:31:33.655Z,1027.16
2018-12-26T01:32:33.670Z,1027.15
2018-12-26T01:33:33.675Z,1027.15
2018-12-26T01:34:33.691Z,1027.12
2018-12-26T01:35:33.700Z,1027.17
2018-12-26T01:36:33.741Z,1027.15
2018-12-26T01:37:33.725Z,1027.10
2018-12-26T01:38:33.727Z,1027.09
2018-12-26T01:39:33.735Z,1027.12
2018-12-26T01:40:33.749Z,1027.11
2018-12-26T01:41:33.755Z,1027.13
2018-12-26T01:42:33.766Z,1027.09
2018-12-26T01:43:33.786Z,1027.11
2018-12-26T01:44:33.786Z,1027.10
2018-12-26T01:45:33.793Z,1027.12
2018-12-26T01:46:33.805Z,1027.11
2018-12-26T01:47:33.815Z,1027.04
2018-12-26T01:48:33.827Z,1027.03
2018-12-26T01:49:33.850Z,1027.01
2018-12-26T01:50:33.845Z,1026.96
2018-12-26T01:51:33.852Z,1026.96
2018-12-26T01:52:33.865Z,1026.91
2018-12-26T01:53:33.872Z,1026.90
2018-12-26T01:54:33.882Z,1026.88
2018-12-26T01:55:33.900Z,1026.84
2018-12-26T01:56:33.903Z,1026.85
2018-12-26T01:57:34.005Z,1026.84
2018-12-26T01:58:33.920Z,1026.86
2018-12-26T01:59:33.935Z,1026.82
2018-12-26T02:00:33.964Z,1026.77
2018-12-26T02:01:33.946Z,1026.80
2018-12-26T02:02:33.957Z,1026.82
2018-12-26T02:03:33.974Z,1026.85
2018-12-26T02:04:33.979Z,1026.84
2018-12-26T02:05:33.989Z,1026.84
2018-12-26T02:06:33.998Z,1026.82
2018-12-26T02:07:34.010Z,1026.85
2018-12-26T02:08:34.015Z,1026.76
2018-12-26T02:09:34.025Z,1026.75
2018-12-26T02:10:34.037Z,1026.71
2018-12-26T02:11:34.044Z,1026.67
2018-12-26T02:12:34.056Z,1026.70
2018-12-26T02:13:34.065Z,1026.65
2018-12-26T02:14:34.075Z,1026.64
2018-12-26T02:15:34.086Z,1026.70
2018-12-26T02:16:34.100Z,1026.67
2018-12-26T02:17:34.125Z,1026.70
2018-12-26T02:18:34.110Z,1026.63
2018-12-26T02:19:34.129Z,1026.61
2018-12-26T02:20:34.187Z,1026.68
2018-12-26T02:21:34.241Z,1026.58
2018-12-26T02:22:34.259Z,1026.62
2018-12-26T02:23:34.161Z,1026.65
2018-12-26T02:24:34.174Z,1026.61
2018-12-26T02:25:34.195Z,1026.63
2018-12-26T02:26:36.565Z,1026.64
2018-12-26T02:27:34.200Z,1026.61
2018-12-26T02:28:34.215Z,1026.59
2018-12-26T02:29:34.219Z,1026.60
2018-12-26T02:30:34.227Z,1026.63
2018-12-26T02:31:34.247Z,1026.62
2018-12-26T02:32:34.246Z,1026.61
2018-12-26T02:33:34.254Z,1026.63
2018-12-26T02:34:34.267Z,1026.58
2018-12-26T02:35:34.278Z,1026.63
2018-12-26T02:36:34.284Z,1026.58
2018-12-26T02:37:35.548Z,1026.58
2018-12-26T02:38:34.302Z,1026.58
2018-12-26T02:39:34.330Z,1026.59
2018-12-26T02:40:34.321Z,1026.60
2018-12-26T02:41:34.335Z,1026.63
2018-12-26T02:42:34.344Z,1026.68
2018-12-26T02:43:34.350Z,1026.61
2018-12-26T02:44:34.361Z,1026.58
2018-12-26T02:45:34.405Z,1026.59
2018-12-26T02:46:34.417Z,1026.59
2018-12-26T02:47:34.391Z,1026.58
2018-12-26T02:48:34.404Z,1026.57
2018-12-26T02:49:34.415Z,1026.57
2018-12-26T02:50:34.413Z,1026.55
2018-12-26T02:51:34.439Z,1026.55
2018-12-26T02:52:34.441Z,1026.49
2018-12-26T02:53:34.454Z,1026.57
2018-12-26T02:54:34.470Z,1026.50
2018-12-26T02:55:34.464Z,1026.52
2018-12-26T02:56:34.493Z,1026.50
2018-12-26T02:57:34.488Z,1026.54
2018-12-26T02:58:34.496Z,1026.48
2018-12-26T02:59:34.506Z,1026.48
2018-12-26T03:00:34.530Z,1026.43
2018-12-26T03:01:34.524Z,1026.43
2018-12-26T03:02:34.532Z,1026.37
2018-12-26T03:03:34.554Z,1026.40
2018-12-26T03:04:34.552Z,1026.36
2018-12-26T03:05:34.564Z,1026.38
2018-12-26T03:06:34.568Z,1026.37
2018-12-26T03:07:34.582Z,1026.38
2018-12-26T03:08:34.586Z,1026.35
2018-12-26T03:09:34.597Z,1026.40
2018-12-26T03:10:34.610Z,1026.38
2018-12-26T03:11:34.619Z,1026.34
2018-12-26T03:12:34.625Z,1026.38
2018-12-26T03:13:34.635Z,1026.33
2018-12-26T03:14:34.658Z,1026.32
2018-12-26T03:15:34.653Z,1026.29
2018-12-26T03:16:34.666Z,1026.25
2018-12-26T03:17:34.673Z,1026.27
2018-12-26T03:18:34.690Z,1026.28
2018-12-26T03:19:34.691Z,1026.19
2018-12-26T03:20:34.701Z,1026.22
2018-12-26T03:21:34.709Z,1026.19
2018-12-26T03:22:34.720Z,1026.22
2018-12-26T03:23:34.731Z,1026.20
2018-12-26T03:24:34.742Z,1026.17
2018-12-26T03:25:34.747Z,1026.18
2018-12-26T03:26:34.762Z,1026.22
2018-12-26T03:27:34.778Z,1026.18
2018-12-26T03:28:34.887Z,1026.19
2018-12-26T03:29:34.797Z,1026.22
2018-12-26T03:30:34.800Z,1026.14
2018-12-26T03:31:34.808Z,1026.15
2018-12-26T03:32:34.820Z,1026.11
2018-12-26T03:33:34.825Z,1026.03
2018-12-26T03:34:34.833Z,1026.00
2018-12-26T03:35:34.840Z,1025.97
2018-12-26T03:36:34.856Z,1025.97
2018-12-26T03:37:34.866Z,1025.92
2018-12-26T03:38:34.869Z,1025.84
2018-12-26T03:39:34.881Z,1025.81
2018-12-26T03:40:34.890Z,1025.87
2018-12-26T03:41:34.900Z,1025.87
2018-12-26T03:42:34.913Z,1025.86
2018-12-26T03:43:34.934Z,1025.83
2018-12-26T03:44:34.931Z,1025.76
2018-12-26T03:45:34.940Z,1025.81
2018-12-26T03:46:34.962Z,1025.79
2018-12-26T03:47:34.955Z,1025.76
2018-12-26T03:48:34.982Z,1025.76
2018-12-26T03:49:34.997Z,1025.73
2018-12-26T03:50:34.986Z,1025.77
2018-12-26T03:51:35.009Z,1025.74
2018-12-26T03:52:35.003Z,1025.77
2018-12-26T03:53:35.020Z,1025.74
2018-12-26T03:54:35.022Z,1025.78
2018-12-26T03:55:35.029Z,1025.76
2018-12-26T03:56:35.067Z,1025.78
2018-12-26T03:57:35.052Z,1025.83
2018-12-26T03:58:35.065Z,1025.76
2018-12-26T03:59:35.070Z,1025.76
2018-12-26T04:00:35.090Z,1025.78
2018-12-26T04:01:35.095Z,1025.78
2018-12-26T04:02:35.103Z,1025.75
2018-12-26T04:03:35.109Z,1025.73
2018-12-26T04:04:35.132Z,1025.67
2018-12-26T04:05:35.137Z,1025.72
2018-12-26T04:06:35.149Z,1025.67
2018-12-26T04:07:35.149Z,1025.69
2018-12-26T04:08:35.159Z,1025.73
2018-12-26T04:09:35.171Z,1025.76
2018-12-26T04:10:35.176Z,1025.71
2018-12-26T04:11:35.185Z,1025.73
2018-12-26T04:12:35.194Z,1025.74
2018-12-26T04:13:35.199Z,1025.74
2018-12-26T04:14:35.218Z,1025.72
2018-12-26T04:15:35.223Z,1025.72
2018-12-26T04:16:35.231Z,1025.75
2018-12-26T04:17:35.236Z,1025.69
2018-12-26T04:18:35.251Z,1025.67
2018-12-26T04:19:35.275Z,1025.71
2018-12-26T04:20:35.291Z,1025.66
2018-12-26T04:21:35.274Z,1025.69
2018-12-26T04:22:35.288Z,1025.67
2018-12-26T04:23:35.295Z,1025.70
2018-12-26T04:24:35.309Z,1025.72
2018-12-26T04:25:35.316Z,1025.65
2018-12-26T04:26:35.326Z,1025.62
2018-12-26T04:27:35.332Z,1025.63
2018-12-26T04:28:35.343Z,1025.56
2018-12-26T04:29:35.371Z,1025.62
2018-12-26T04:30:35.370Z,1025.60
2018-12-26T04:31:35.368Z,1025.62
2018-12-26T04:32:35.384Z,1025.61
2018-12-26T04:33:35.409Z,1025.62
2018-12-26T04:34:35.404Z,1025.60
2018-12-26T04:35:35.415Z,1025.68
2018-12-26T04:36:35.423Z,1025.61
2018-12-26T04:37:35.433Z,1025.66
2018-12-26T04:38:35.440Z,1025.67
2018-12-26T04:39:35.448Z,1025.64
2018-12-26T04:40:35.458Z,1025.66
2018-12-26T04:41:35.468Z,1025.65
2018-12-26T04:42:35.473Z,1025.65
2018-12-26T04:43:35.487Z,1025.68
2018-12-26T04:44:35.500Z,1025.68
2018-12-26T04:45:35.518Z,1025.70
2018-12-26T04:46:35.526Z,1025.70
2018-12-26T04:47:35.527Z,1025.65
2018-12-26T04:48:35.534Z,1025.65
2018-12-26T04:49:35.550Z,1025.66
2018-12-26T04:50:35.549Z,1025.65
2018-12-26T04:51:35.571Z,1025.65
2018-12-26T04:52:35.671Z,1025.65
2018-12-26T04:53:35.578Z,1025.68
2018-12-26T04:54:35.602Z,1025.66
2018-12-26T04:55:35.598Z,1025.66
2018-12-26T04:56:35.623Z,1025.69
2018-12-26T04:57:35.616Z,1025.70
2018-12-26T04:58:35.630Z,1025.71
2018-12-26T04:59:35.636Z,1025.73
2018-12-26T05:00:35.651Z,1025.83
2018-12-26T05:01:35.656Z,1025.83
2018-12-26T05:02:35.668Z,1025.79
2018-12-26T05:03:35.683Z,1025.84
2018-12-26T05:04:35.686Z,1025.87
2018-12-26T05:05:35.719Z,1025.88
2018-12-26T05:06:35.705Z,1025.92
2018-12-26T05:07:35.710Z,1025.91
2018-12-26T05:08:35.719Z,1025.92
2018-12-26T05:09:35.731Z,1025.90
2018-12-26T05:10:35.737Z,1025.97
2018-12-26T05:11:35.748Z,1025.93
2018-12-26T05:12:35.762Z,1025.99
2018-12-26T05:13:35.847Z,1025.94
2018-12-26T05:14:35.783Z,1025.94
2018-12-26T05:15:35.791Z,1025.97
2018-12-26T05:16:35.825Z,1026.01
2018-12-26T05:17:35.811Z,1025.97
2018-12-26T05:18:35.818Z,1025.96
2018-12-26T05:19:35.826Z,1025.98
2018-12-26T05:20:35.826Z,1025.93
2018-12-26T05:21:35.988Z,1025.96
2018-12-26T05:22:35.846Z,1025.94
2018-12-26T05:23:35.856Z,1025.96
2018-12-26T05:24:35.865Z,1025.97
2018-12-26T05:25:35.886Z,1026.02
2018-12-26T05:26:35.887Z,1026.03
2018-12-26T05:27:35.904Z,1026.02
2018-12-26T05:28:35.903Z,1026.01
2018-12-26T05:29:35.915Z,1026.03
2018-12-26T05:30:35.919Z,1025.98
2018-12-26T05:31:35.942Z,1026.01
2018-12-26T05:32:35.997Z,1026.00
2018-12-26T05:33:35.963Z,1026.00
2018-12-26T05:34:35.962Z,1026.02
2018-12-26T05:35:35.967Z,1025.99
2018-12-26T05:36:35.980Z,1026.00
2018-12-26T05:37:36.000Z,1025.97
2018-12-26T05:38:35.999Z,1026.01
2018-12-26T05:39:36.009Z,1026.04
2018-12-26T05:40:36.030Z,1026.03
2018-12-26T05:41:36.026Z,1026.04
2018-12-26T05:42:36.035Z,1026.08
2018-12-26T05:43:36.047Z,1026.03
2018-12-26T05:44:36.054Z,1026.03
2018-12-26T05:45:36.067Z,1026.06
2018-12-26T05:46:36.075Z,1026.06
2018-12-26T05:47:36.083Z,1026.09
2018-12-26T05:48:36.098Z,1026.00
2018-12-26T05:49:36.106Z,1026.05
2018-12-26T05:50:36.116Z,1026.06
2018-12-26T05:51:36.123Z,1026.04
2018-12-26T05:52:36.235Z,1026.04
2018-12-26T05:53:36.140Z,1026.06
2018-12-26T05:54:36.148Z,1026.02
2018-12-26T05:55:36.527Z,1026.01
2018-12-26T05:56:36.170Z,1025.99
2018-12-26T05:57:42.782Z,1026.05
2018-12-26T05:58:36.187Z,1026.02
2018-12-26T05:59:36.201Z,1026.03
2018-12-26T06:00:36.208Z,1026.04
2018-12-26T06:01:36.215Z,1026.02
2018-12-26T06:02:36.225Z,1026.04
2018-12-26T06:03:36.237Z,1026.04
2018-12-26T06:04:36.257Z,1026.06
2018-12-26T06:05:36.257Z,1026.08
2018-12-26T06:06:36.264Z,1026.11
2018-12-26T06:07:36.272Z,1026.07
2018-12-26T06:08:36.282Z,1026.07
2018-12-26T06:09:36.309Z,1026.06
2018-12-26T06:10:36.304Z,1026.07
2018-12-26T06:11:36.311Z,1026.10
2018-12-26T06:12:36.320Z,1026.08
2018-12-26T06:13:36.330Z,1026.07
2018-12-26T06:14:36.341Z,1026.11
2018-12-26T06:15:36.351Z,1026.07
2018-12-26T06:16:36.377Z,1026.10
2018-12-26T06:17:36.366Z,1026.08
2018-12-26T06:18:36.378Z,1026.09
2018-12-26T06:19:36.388Z,1026.14
2018-12-26T06:20:36.408Z,1026.16
2018-12-26T06:21:36.406Z,1026.15
2018-12-26T06:22:36.423Z,1026.16
2018-12-26T06:23:36.430Z,1026.11
2018-12-26T06:24:36.439Z,1026.16
2018-12-26T06:25:36.458Z,1026.16
2018-12-26T06:26:36.456Z,1026.17
2018-12-26T06:27:36.460Z,1026.18
2018-12-26T06:28:36.476Z,1026.20
2018-12-26T06:29:36.484Z,1026.15
2018-12-26T06:30:36.490Z,1026.15
2018-12-26T06:31:36.502Z,1026.17
2018-12-26T06:32:36.511Z,1026.20
2018-12-26T06:33:36.517Z,1026.15
2018-12-26T06:34:36.525Z,1026.13
2018-12-26T06:35:36.541Z,1026.14
2018-12-26T06:36:36.564Z,1026.16
2018-12-26T06:37:36.557Z,1026.14
2018-12-26T06:38:36.568Z,1026.14
2018-12-26T06:39:36.580Z,1026.09
2018-12-26T06:40:36.588Z,1026.07
2018-12-26T06:41:36.610Z,1026.05
2018-12-26T06:42:36.605Z,1026.12
2018-12-26T06:43:36.621Z,1026.08
2018-12-26T06:44:36.627Z,1026.11
2018-12-26T06:45:36.630Z,1026.12
2018-12-26T06:46:36.643Z,1026.09
2018-12-26T06:47:36.654Z,1026.07
2018-12-26T06:48:36.664Z,1026.14
2018-12-26T06:49:36.670Z,1026.14
2018-12-26T06:50:36.678Z,1026.14
2018-12-26T06:51:36.690Z,1026.13
2018-12-26T06:52:36.699Z,1026.09
2018-12-26T06:53:36.707Z,1026.16
2018-12-26T06:54:36.728Z,1026.17
2018-12-26T06:55:36.728Z,1026.16
2018-12-26T06:56:36.735Z,1026.15
2018-12-26T06:57:36.744Z,1026.16
2018-12-26T06:58:36.759Z,1026.15
2018-12-26T06:59:36.772Z,1026.17
2018-12-26T07:00:36.775Z,1026.15
2018-12-26T07:01:36.786Z,1026.18
2018-12-26T07:02:36.802Z,1026.13
2018-12-26T07:03:36.802Z,1026.14
2018-12-26T07:04:36.824Z,1026.19
2018-12-26T07:05:36.825Z,1026.16
2018-12-26T07:06:36.832Z,1026.18
2018-12-26T07:07:36.847Z,1026.18
2018-12-26T07:08:36.852Z,1026.13
2018-12-26T07:09:36.860Z,1026.16
2018-12-26T07:10:36.869Z,1026.10
2018-12-26T07:11:36.880Z,1026.11
2018-12-26T07:12:36.901Z,1026.11
2018-12-26T07:13:36.896Z,1026.12
2018-12-26T07:14:36.922Z,1026.09
2018-12-26T07:15:36.915Z,1026.10
2018-12-26T07:16:36.933Z,1026.06
2018-12-26T07:17:36.938Z,1026.13
2018-12-26T07:18:36.956Z,1026.09
2018-12-26T07:19:36.956Z,1026.14
2018-12-26T07:20:36.977Z,1026.16
2018-12-26T07:21:36.975Z,1026.17
2018-12-26T07:22:36.983Z,1026.13
2018-12-26T07:23:36.993Z,1026.12
2018-12-26T07:24:37.022Z,1026.10
2018-12-26T07:25:37.024Z,1026.08
2018-12-26T07:26:37.019Z,1026.08
2018-12-26T07:27:37.042Z,1026.07
2018-12-26T07:28:37.042Z,1026.08
2018-12-26T07:29:37.058Z,1026.11
2018-12-26T07:30:37.062Z,1026.10
2018-12-26T07:31:37.079Z,1026.10
2018-12-26T07:32:37.075Z,1026.09
2018-12-26T07:33:37.087Z,1026.08
2018-12-26T07:34:42.205Z,1026.08
2018-12-26T07:35:37.111Z,1026.06
2018-12-26T07:36:37.116Z,1026.09
2018-12-26T07:37:37.126Z,1026.07
2018-12-26T07:38:37.133Z,1026.07
2018-12-26T07:39:37.142Z,1026.08
2018-12-26T07:40:37.155Z,1026.06
2018-12-26T07:41:37.161Z,1026.09
2018-12-26T07:42:37.172Z,1026.10
2018-12-26T07:43:37.182Z,1026.10
2018-12-26T07:44:37.194Z,1026.09
2018-12-26T07:45:37.198Z,1026.07
2018-12-26T07:46:37.208Z,1026.09
2018-12-26T07:47:37.227Z,1026.07
2018-12-26T07:48:37.227Z,1026.02
2018-12-26T07:49:37.241Z,1026.04
2018-12-26T07:50:37.247Z,1026.03
2018-12-26T07:51:37.258Z,1026.05
2018-12-26T07:52:37.268Z,1026.00
2018-12-26T07:53:37.275Z,1026.00
2018-12-26T07:54:37.283Z,1026.07
2018-12-26T07:55:37.295Z,1026.03
2018-12-26T07:56:37.308Z,1026.08
2018-12-26T07:57:37.317Z,1026.00
2018-12-26T07:58:37.335Z,1026.05
2018-12-26T07:59:37.754Z,1026.07
2018-12-26T08:00:37.346Z,1026.04
2018-12-26T08:01:37.362Z,1026.04
2018-12-26T08:02:37.359Z,1026.06
2018-12-26T08:03:37.370Z,1026.06
2018-12-26T08:04:37.383Z,1026.03
2018-12-26T08:05:37.390Z,1026.03
2018-12-26T08:06:37.398Z,1026.06
2018-12-26T08:07:37.408Z,1026.02
2018-12-26T08:08:37.422Z,1026.06
2018-12-26T08:09:37.431Z,1026.04
2018-12-26T08:10:37.438Z,1026.05
2018-12-26T08:11:37.442Z,1026.06
2018-12-26T08:12:37.455Z,1026.08
2018-12-26T08:13:37.465Z,1026.07
2018-12-26T08:14:37.472Z,1026.10
2018-12-26T08:15:37.485Z,1026.08
2018-12-26T08:16:37.491Z,1026.05
2018-12-26T08:17:37.507Z,1026.09
2018-12-26T08:18:37.512Z,1026.06
2018-12-26T08:19:37.517Z,1026.03
2018-12-26T08:20:37.529Z,1025.95
2018-12-26T08:21:37.541Z,1026.00
2018-12-26T08:22:37.545Z,1026.02
2018-12-26T08:23:37.557Z,1026.04
2018-12-26T08:24:37.582Z,1026.02
2018-12-26T08:25:37.575Z,1026.04
2018-12-26T08:26:37.588Z,1026.04
2018-12-26T08:27:37.594Z,1026.03
2018-12-26T08:28:37.610Z,1025.98
2018-12-26T08:29:37.612Z,1026.03
2018-12-26T08:30:37.621Z,1025.99
2018-12-26T08:31:37.643Z,1026.01
2018-12-26T08:32:37.646Z,1025.98
2018-12-26T08:33:37.663Z,1025.99
2018-12-26T08:34:37.662Z,1026.00
2018-12-26T08:35:37.717Z,1026.01
2018-12-26T08:36:37.680Z,1026.00
2018-12-26T08:37:37.689Z,1026.07
2018-12-26T08:38:37.699Z,1026.02
2018-12-26T08:39:37.706Z,1026.04
2018-12-26T08:40:37.765Z,1026.01
2018-12-26T08:41:37.724Z,1026.02
2018-12-26T08:42:37.735Z,1026.06
2018-12-26T08:43:37.756Z,1026.03
2018-12-26T08:44:37.753Z,1026.03
2018-12-26T08:45:37.765Z,1026.05
2018-12-26T08:46:37.772Z,1026.00
2018-12-26T08:47:37.787Z,1026.03
2018-12-26T08:48:37.794Z,1026.03
2018-12-26T08:49:37.801Z,1026.09
2018-12-26T08:50:37.812Z,1026.05
2018-12-26T08:51:37.819Z,1026.06
2018-12-26T08:52:37.838Z,1026.08
2018-12-26T08:53:37.892Z,1026.07
2018-12-26T08:54:37.848Z,1026.08
2018-12-26T08:55:37.862Z,1026.08
2018-12-26T08:56:37.865Z,1026.09
2018-12-26T08:57:37.878Z,1026.06
2018-12-26T08:58:37.890Z,1026.10
2018-12-26T08:59:37.894Z,1026.07
2018-12-26T09:00:37.914Z,1026.12
2018-12-26T09:01:37.912Z,1026.14
2018-12-26T09:02:37.927Z,1026.11
2018-12-26T09:03:37.940Z,1026.13
2018-12-26T09:04:37.944Z,1026.10
2018-12-26T09:05:37.955Z,1026.15
2018-12-26T09:06:37.961Z,1026.18
2018-12-26T09:07:37.974Z,1026.16
2018-12-26T09:08:37.984Z,1026.13
2018-12-26T09:09:37.992Z,1026.17
2018-12-26T09:10:38.000Z,1026.14
2018-12-26T09:11:38.011Z,1026.10
2018-12-26T09:12:38.022Z,1026.16
2018-12-26T09:13:38.030Z,1026.14
2018-12-26T09:14:38.037Z,1026.16
2018-12-26T09:15:38.052Z,1026.14
2018-12-26T09:16:38.061Z,1026.22
2018-12-26T09:17:38.067Z,1026.19
2018-12-26T09:18:38.076Z,1026.17
2018-12-26T09:19:38.096Z,1026.23
2018-12-26T09:20:38.115Z,1026.19
2018-12-26T09:21:38.108Z,1026.22
2018-12-26T09:22:38.115Z,1026.24
2018-12-26T09:23:38.135Z,1026.25
2018-12-26T09:24:38.132Z,1026.26
2018-12-26T09:25:38.149Z,1026.28
2018-12-26T09:26:38.157Z,1026.25
2018-12-26T09:27:38.173Z,1026.27
2018-12-26T09:28:43.762Z,1026.21
2018-12-26T09:29:38.185Z,1026.24
2018-12-26T09:30:38.193Z,1026.23
2018-12-26T09:31:38.205Z,1026.24
2018-12-26T09:32:38.209Z,1026.20
2018-12-26T09:33:38.224Z,1026.20
2018-12-26T09:34:38.228Z,1026.21
2018-12-26T09:35:38.241Z,1026.21
2018-12-26T09:36:38.252Z,1026.21
2018-12-26T09:37:38.260Z,1026.26
2018-12-26T09:38:38.274Z,1026.25
2018-12-26T09:39:38.285Z,1026.24
2018-12-26T09:40:38.312Z,1026.27
2018-12-26T09:41:38.309Z,1026.27
2018-12-26T09:42:38.307Z,1026.28
2018-12-26T09:43:38.431Z,1026.26
2018-12-26T09:44:38.326Z,1026.23
2018-12-26T09:45:38.345Z,1026.22
2018-12-26T09:46:38.347Z,1026.23
2018-12-26T09:47:38.355Z,1026.27
2018-12-26T09:48:38.753Z,1026.24
2018-12-26T09:49:38.372Z,1026.23
2018-12-26T09:50:38.397Z,1026.22
2018-12-26T09:51:38.396Z,1026.25
2018-12-26T09:52:38.403Z,1026.21
2018-12-26T09:53:38.408Z,1026.20
2018-12-26T09:54:38.433Z,1026.19
2018-12-26T09:55:38.437Z,1026.16
2018-12-26T09:56:38.441Z,1026.14
2018-12-26T09:57:38.463Z,1026.16
2018-12-26T09:58:38.459Z,1026.13
2018-12-26T09:59:38.481Z,1026.16
2018-12-26T10:00:38.480Z,1026.12
2018-12-26T10:01:38.497Z,1026.17
2018-12-26T10:02:38.495Z,1026.15
2018-12-26T10:03:38.511Z,1026.12
2018-12-26T10:04:38.534Z,1026.14
2018-12-26T10:05:38.527Z,1026.15
2018-12-26T10:06:38.572Z,1026.13
2018-12-26T10:07:38.548Z,1026.13
2018-12-26T10:08:38.553Z,1026.13
2018-12-26T10:09:38.568Z,1026.14
2018-12-26T10:10:38.582Z,1026.14
2018-12-26T10:11:38.586Z,1026.08
2018-12-26T10:12:38.594Z,1026.11
2018-12-26T10:13:38.607Z,1026.16
2018-12-26T10:14:38.614Z,1026.12
2018-12-26T10:15:38.623Z,1026.08
2018-12-26T10:16:38.636Z,1026.07
2018-12-26T10:17:38.644Z,1026.09
2018-12-26T10:18:38.652Z,1026.10
2018-12-26T10:19:38.659Z,1026.08
2018-12-26T10:20:38.669Z,1026.12
2018-12-26T10:21:38.677Z,1026.14
2018-12-26T10:22:38.689Z,1026.12
2018-12-26T10:23:38.697Z,1026.12
2018-12-26T10:24:38.706Z,1026.09
2018-12-26T10:25:38.729Z,1026.11
2018-12-26T10:26:38.723Z,1026.16
2018-12-26T10:27:38.738Z,1026.11
2018-12-26T10:28:38.758Z,1026.09
2018-12-26T10:29:38.758Z,1026.16
2018-12-26T10:30:38.767Z,1026.13
2018-12-26T10:31:38.788Z,1026.11
2018-12-26T10:32:39.225Z,1026.13
2018-12-26T10:33:38.797Z,1026.11
2018-12-26T10:34:38.804Z,1026.13
2018-12-26T10:35:38.810Z,1026.10
2018-12-26T10:36:38.827Z,1026.08
2018-12-26T10:37:40.961Z,1026.08
2018-12-26T10:38:38.843Z,1026.05
2018-12-26T10:39:38.854Z,1026.06
2018-12-26T10:40:38.869Z,1026.08
2018-12-26T10:41:38.875Z,1026.08
2018-12-26T10:42:38.882Z,1026.07
2018-12-26T10:43:38.892Z,1026.07
2018-12-26T10:44:38.906Z,1026.08
2018-12-26T10:45:38.924Z,1026.08
2018-12-26T10:46:38.926Z,1026.09
2018-12-26T10:47:38.956Z,1026.12
2018-12-26T10:48:38.951Z,1026.08
2018-12-26T10:49:38.965Z,1026.10
2018-12-26T10:50:38.960Z,1026.11
2018-12-26T10:51:38.968Z,1026.09
2018-12-26T10:52:38.981Z,1026.07
2018-12-26T10:53:39.007Z,1026.10
2018-12-26T10:54:38.996Z,1026.09
2018-12-26T10:55:39.008Z,1026.05
2018-12-26T10:56:39.031Z,1026.09
2018-12-26T10:57:39.032Z,1026.05
2018-12-26T10:58:39.046Z,1026.00
2018-12-26T10:59:39.046Z,1026.04
2018-12-26T11:00:39.058Z,1026.00
2018-12-26T11:01:39.068Z,1026.00
2018-12-26T11:02:39.080Z,1025.95
2018-12-26T11:03:39.390Z,1025.93
2018-12-26T11:04:39.101Z,1025.97
2018-12-26T11:05:39.105Z,1025.99
2018-12-26T11:06:39.186Z,1025.98
2018-12-26T11:07:39.127Z,1026.02
2018-12-26T11:08:39.139Z,1026.02
2018-12-26T11:09:39.141Z,1026.04
2018-12-26T11:10:39.155Z,1026.01
2018-12-26T11:11:39.163Z,1026.04
2018-12-26T11:12:39.174Z,1026.01
2018-12-26T11:13:39.181Z,1025.97
2018-12-26T11:14:39.193Z,1025.99
2018-12-26T11:15:39.203Z,1025.97
2018-12-26T11:16:39.211Z,1025.95
2018-12-26T11:17:39.235Z,1025.93
2018-12-26T11:18:39.232Z,1025.95
2018-12-26T11:19:39.264Z,1025.92
2018-12-26T11:20:39.257Z,1025.93
2018-12-26T11:21:39.263Z,1025.89
2018-12-26T11:22:39.274Z,1025.89
2018-12-26T11:23:39.280Z,1025.88
2018-12-26T11:24:39.294Z,1025.89
2018-12-26T11:25:39.301Z,1025.86
2018-12-26T11:26:39.309Z,1025.83
2018-12-26T11:27:39.323Z,1025.79
2018-12-26T11:28:39.330Z,1025.76
2018-12-26T11:29:39.341Z,1025.79
2018-12-26T11:30:39.348Z,1025.80
2018-12-26T11:31:39.359Z,1025.73
2018-12-26T11:32:39.368Z,1025.74
2018-12-26T11:33:39.395Z,1025.76
2018-12-26T11:34:39.390Z,1025.76
2018-12-26T11:35:39.399Z,1025.72
2018-12-26T11:36:39.406Z,1025.72
2018-12-26T11:37:39.420Z,1025.70
2018-12-26T11:38:39.477Z,1025.73
2018-12-26T11:40:39.456Z,1025.72
2018-12-26T11:41:39.464Z,1025.67
2018-12-26T11:42:39.469Z,1025.69
2018-12-26T11:43:39.475Z,1025.72
2018-12-26T11:44:39.506Z,1025.69
2018-12-26T11:45:39.498Z,1025.69
2018-12-26T11:46:39.506Z,1025.71
2018-12-26T11:47:39.525Z,1025.69
2018-12-26T11:48:39.535Z,1025.69
2018-12-26T11:49:39.543Z,1025.65
2018-12-26T11:50:39.553Z,1025.64
2018-12-26T11:51:39.556Z,1025.66
2018-12-26T11:52:39.564Z,1025.65
2018-12-26T11:53:39.604Z,1025.61
2018-12-26T11:54:39.604Z,1025.66
2018-12-26T11:55:39.638Z,1025.63
2018-12-26T11:56:39.602Z,1025.64
2018-12-26T11:57:39.613Z,1025.62
2018-12-26T11:58:39.622Z,1025.62
2018-12-26T11:59:39.651Z,1025.63
2018-12-26T12:00:39.644Z,1025.62
2018-12-26T12:01:39.652Z,1025.60
2018-12-26T12:02:39.661Z,1025.59
2018-12-26T12:03:39.671Z,1025.59
2018-12-26T12:04:39.791Z,1025.61
2018-12-26T12:05:39.695Z,1025.60
2018-12-26T12:06:39.705Z,1025.59